Time;durP1;ratioP1;P1;durP2;ratioP2;P2;SDS_P1;SDS_P2;PMS_P1;PMS_P2;Temp;Humidity;BMP_temperature;BMP_pressure;BME280_temperature;BME280_humidity;BME280_pressure;Samples;Min_cycle;Max_cycle;Signal;HPM_P1;HPM_P2
2021/12/25 00:03:43;;;;;;;2.42;1.95;;;;;;;1.36;92.19;99249.53;2903408;82;21026;-78
2021/12/25 00:07:49;;;;;;;5.62;1.92;;;;;;;1.22;90.16;99251.68;2937369;80;21078;-79
2021/12/25 00:11:55;;;;;;;3.02;1.67;;;;;;;1.15;90.91;99267.37;2924762;80;21058;-78
2021/12/25 00:16:00;;;;;;;3.20;1.40;;;;;;;1.08;91.00;99276.08;2922268;80;21003;-80
2021/12/25 00:20:05;;;;;;;0.80;0.80;;;;;;;0.95;89.62;99290.33;2904020;82;21597;-77
2021/12/25 00:24:10;;;;;;;3.63;1.43;;;;;;;0.83;87.16;99289.75;2904505;81;21018;-79
2021/12/25 00:28:37;;;;;;;2.83;1.30;;;;;;;0.75;87.73;99291.95;2904341;82;21086;-77
2021/12/25 00:32:41;;;;;;;2.80;1.15;;;;;;;0.68;85.83;99315.87;2923903;80;21046;-78
2021/12/25 00:36:29;;;;;;;6.60;1.40;;;;;;;0.51;82.75;99324.67;2944436;80;21042;-77
2021/12/25 00:40:35;;;;;;;1.87;1.22;;;;;;;0.36;82.41;99315.87;2955364;80;21586;-77
2021/12/25 00:44:41;;;;;;;4.83;1.03;;;;;;;0.16;80.71;99333.13;2956251;80;21070;-79
2021/12/25 00:48:47;;;;;;;;;;;;;;;0.13;82.75;99319.77;2958197;80;21046;-79
2021/12/25 00:52:52;;;;;;;2.30;2.10;;;;;;;0.01;81.85;99354.41;2894484;82;20604;-73
2021/12/25 00:56:54;;;;;;;2.77;1.40;;;;;;;-0.08;79.09;99353.13;2951274;80;21054;-80
2021/12/25 01:01:04;;;;;;;2.10;1.35;;;;;;;-0.21;78.26;99366.00;2919654;80;20983;-79
2021/12/25 01:05:11;;;;;;;2.42;1.07;;;;;;;-0.27;80.25;99378.09;2936992;80;21121;-78
2021/12/25 01:09:15;;;;;;;1.90;0.90;;;;;;;-0.27;80.25;99378.09;2918151;80;21598;-80
2021/12/25 01:13:26;;;;;;;1.67;1.52;;;;;;;-0.26;80.64;99399.38;2904239;82;21030;-80
2021/12/25 01:50:42;;;;;;;2.80;1.15;;;;;;;-0.67;78.52;99463.22;2906633;82;21070;-80
2021/12/25 01:54:43;;;;;;;0.90;0.90;;;;;;;-0.74;76.17;99463.53;2902902;82;21035;-80
2021/12/25 01:58:45;;;;;;;2.65;1.32;;;;;;;-0.84;74.57;99474.48;2903461;82;21015;-76
2021/12/25 02:02:48;;;;;;;1.77;0.90;;;;;;;-0.89;70.94;99492.50;2903336;80;21053;-80
2021/12/25 02:06:50;;;;;;;2.35;1.20;;;;;;;-1.07;70.90;99481.17;2913913;80;21080;-79
2021/12/25 02:10:54;;;;;;;1.85;1.65;;;;;;;-1.11;71.65;99502.26;2950247;80;21081;-80
2021/12/25 02:15:02;;;;;;;2.90;0.80;;;;;;;-1.12;70.58;99496.66;2941906;80;21477;-80
2021/12/25 02:19:07;;;;;;;2.72;1.00;;;;;;;-1.12;72.52;99500.13;2902415;82;21128;-78
2021/12/25 02:23:21;;;;;;;2.17;1.20;;;;;;;-1.21;70.66;99488.78;2904421;80;21122;-79
2021/12/25 02:27:23;;;;;;;1.47;0.80;;;;;;;-1.25;71.59;99521.16;2912998;79;21077;-76
2021/12/25 02:31:27;;;;;;;4.03;1.22;;;;;;;-1.31;71.03;99525.75;2898938;81;21327;-78
2021/12/25 02:35:31;;;;;;;2.33;1.32;;;;;;;-1.36;70.83;99529.03;2856100;83;21053;-75
2021/12/25 02:39:34;;;;;;;1.45;1.12;;;;;;;-1.38;72.28;99539.97;2856012;83;21065;-78
2021/12/25 02:43:38;;;;;;;1.47;0.85;;;;;;;-1.36;71.83;99554.27;2856690;83;21069;-79
2021/12/25 02:47:42;;;;;;;1.82;0.90;;;;;;;-1.39;72.97;99544.80;2855959;83;21042;-80
2021/12/25 02:51:46;;;;;;;4.40;1.52;;;;;;;-1.40;73.24;99545.72;2856245;83;21037;-77
2021/12/25 02:55:47;;;;;;;2.77;1.37;;;;;;;-1.45;71.98;99561.59;2856493;81;21045;-77
2021/12/25 02:59:50;;;;;;;3.47;1.52;;;;;;;-1.44;72.34;99559.81;2891568;81;21033;-79
2021/12/25 03:03:52;;;;;;;2.75;1.37;;;;;;;-1.48;73.28;99549.13;2856352;83;20978;-79
2021/12/25 03:07:54;;;;;;;2.45;1.15;;;;;;;-1.50;71.89;99557.48;2856386;83;21414;-79
2021/12/25 03:11:55;;;;;;;3.98;1.50;;;;;;;-1.55;71.92;99556.84;2896315;81;21065;-72
2021/12/25 03:15:59;;;;;;;6.62;2.15;;;;;;;-1.51;71.51;99557.09;2906304;81;21576;-78
2021/12/25 03:20:06;;;;;;;2.80;1.40;;;;;;;-1.51;71.46;99564.45;2906149;81;21018;-75
2021/12/25 03:24:09;;;;;;;3.83;1.40;;;;;;;-1.49;71.04;99573.53;2906621;81;21029;-76
2021/12/25 03:28:12;;;;;;;2.42;1.55;;;;;;;-1.53;70.96;99561.54;2900909;80;21046;-79
2021/12/25 03:32:15;;;;;;;1.40;0.85;;;;;;;-1.46;71.42;99565.12;2854505;83;21033;-77
2021/12/25 03:36:18;;;;;;;3.30;0.70;;;;;;;-1.60;68.79;99572.69;2856527;82;21057;-75
2021/12/25 03:40:20;;;;;;;2.72;0.80;;;;;;;-1.63;71.83;99581.48;2855831;82;21041;-77
2021/12/25 03:44:23;;;;;;;7.53;1.35;;;;;;;-1.63;70.58;99589.30;2857254;83;21085;-77
2021/12/25 04:05:35;;;;;;;2.27;1.00;;;;;;;-1.62;71.54;99607.13;2856654;82;21104;-74
2021/12/25 04:09:40;;;;;;;1.07;0.97;;;;;;;-1.66;70.20;99615.52;2801962;83;21086;-75
2021/12/25 04:13:43;;;;;;;0.62;0.57;;;;;;;-1.72;69.69;99602.27;2780541;84;21583;-73
2021/12/25 04:17:45;;;;;;;0.82;0.75;;;;;;;-1.73;70.15;99618.00;2798237;85;21101;-68
2021/12/25 04:21:55;;;;;;;1.15;0.90;;;;;;;-1.78;68.76;99622.54;2798479;85;21005;-78
2021/12/25 04:25:54;;;;;;;4.40;1.57;;;;;;;-1.74;69.39;99632.79;2793509;83;21070;-78
2021/12/25 04:30:16;;;;;;;1.87;1.07;;;;;;;-1.74;70.31;99638.00;2840963;83;21665;-78
2021/12/25 05:07:50;;;;;;;4.40;1.50;;;;;;;-1.50;69.29;99677.48;2889788;82;21576;-78
2021/12/25 05:11:53;;;;;;;2.72;1.17;;;;;;;-1.51;69.25;99682.31;2882452;82;21030;-77
2021/12/25 05:15:57;;;;;;;4.12;0.68;;;;;;;-1.53;68.16;99690.66;2886871;82;21105;-77
2021/12/25 05:19:59;;;;;;;0.85;0.78;;;;;;;-1.57;68.51;99696.45;2893316;82;21033;-74
2021/12/25 05:24:01;;;;;;;2.35;1.40;;;;;;;-1.62;67.51;99715.36;2859848;82;21157;-77
2021/12/25 05:28:04;;;;;;;3.60;1.07;;;;;;;-1.66;67.79;99722.45;2843185;82;21053;-78
2021/12/25 05:32:08;;;;;;;2.50;1.32;;;;;;;-1.64;68.30;99732.84;2868829;82;21053;-76
2021/12/25 05:36:11;;;;;;;1.92;0.90;;;;;;;-1.59;68.59;99727.80;2865724;81;21056;-78
2021/12/25 05:40:15;;;;;;;3.55;1.27;;;;;;;-1.53;68.72;99726.71;2795650;84;21076;-73
2021/12/25 05:44:17;;;;;;;6.72;1.57;;;;;;;-1.46;68.22;99724.70;2782280;84;21021;-77
2021/12/25 05:48:18;;;;;;;3.85;1.25;;;;;;;-1.51;67.99;99730.10;2807612;84;21019;-78
2021/12/25 05:52:23;;;;;;;3.30;1.05;;;;;;;-1.48;68.41;99736.50;2843047;83;21104;-77
2021/12/25 05:56:26;;;;;;;4.95;1.05;;;;;;;-1.47;69.02;99738.22;2860518;82;21097;-76
2021/12/25 06:00:34;;;;;;;3.75;1.22;;;;;;;-1.45;67.48;99736.84;2893099;82;21093;-78
2021/12/25 06:04:35;;;;;;;2.92;1.20;;;;;;;-1.56;66.99;99730.75;2886872;81;21094;-77
2021/12/25 06:08:37;;;;;;;1.77;1.65;;;;;;;-1.55;68.32;99729.84;2844233;83;21042;-74
2021/12/25 06:12:41;;;;;;;2.20;1.20;;;;;;;-1.59;68.29;99731.72;2865391;82;21045;-76
2021/12/25 06:16:42;;;;;;;2.95;1.57;;;;;;;-1.65;68.38;99732.45;2874358;82;21578;-78
2021/12/25 06:20:47;;;;;;;2.90;1.25;;;;;;;-1.72;69.00;99735.27;2844024;82;21097;-76
2021/12/25 06:24:53;;;;;;;2.55;1.17;;;;;;;-1.71;68.29;99749.18;2843374;83;21637;-76
2021/12/25 06:28:58;;;;;;;2.72;1.07;;;;;;;-1.66;68.79;99751.14;2903991;81;21102;-77
2021/12/25 06:33:00;;;;;;;11.33;5.08;;;;;;;-1.63;68.98;99761.45;2897043;81;21628;-78
2021/12/25 06:37:02;;;;;;;10.43;4.05;;;;;;;-1.62;68.62;99767.05;2904536;81;21104;-75
2021/12/25 06:41:04;;;;;;;12.30;5.95;;;;;;;-1.60;68.34;99773.06;2893808;81;21045;-78
2021/12/25 06:45:08;;;;;;;18.00;6.75;;;;;;;-1.61;68.03;99780.48;2885597;81;21033;-77
2021/12/25 06:49:10;;;;;;;30.77;13.62;;;;;;;-1.62;68.21;99782.70;2860825;81;20998;-76
2021/12/25 06:53:13;;;;;;;22.55;10.43;;;;;;;-1.63;68.37;99786.23;2830421;83;21028;-75
2021/12/25 06:57:15;;;;;;;13.78;5.78;;;;;;;-1.65;68.35;99791.96;2808156;84;21057;-76
2021/12/25 07:01:16;;;;;;;6.30;2.70;;;;;;;-1.69;68.66;99809.95;2811802;83;21050;-77
2021/12/25 07:05:20;;;;;;;8.00;3.02;;;;;;;-1.71;67.92;99797.42;2887773;81;20982;-74
2021/12/25 07:09:21;;;;;;;7.80;3.45;;;;;;;-1.75;68.28;99788.03;2904997;81;21073;-70
2021/12/25 07:13:23;;;;;;;6.85;3.85;;;;;;;-1.71;68.89;99789.61;2872177;81;21033;-76
2021/12/25 07:17:24;;;;;;;8.35;6.33;;;;;;;-1.72;68.99;99794.42;2856187;83;21455;-75
2021/12/25 07:21:29;;;;;;;16.32;8.28;;;;;;;-1.72;69.34;99797.86;2856225;83;21025;-77
2021/12/25 07:25:34;;;;;;;12.00;8.88;;;;;;;-1.72;69.30;99799.17;2880865;81;21630;-74
2021/12/25 07:29:37;;;;;;;8.68;5.75;;;;;;;-1.70;69.56;99800.43;2898854;80;21108;-78
2021/12/25 07:33:43;;;;;;;15.38;5.53;;;;;;;-1.66;69.59;99807.69;2874418;81;21049;-78
2021/12/25 07:37:45;;;;;;;6.42;4.42;;;;;;;-1.63;69.56;99805.78;2903188;81;21439;-78
2021/12/25 07:41:46;;;;;;;18.15;11.65;;;;;;;-1.60;69.44;99800.45;2895643;81;21002;-78
2021/12/25 07:45:51;;;;;;;461.77;179.93;;;;;;;-1.54;69.60;99809.80;2874758;81;21662;-78
2021/12/25 07:49:56;;;;;;;113.42;39.33;;;;;;;-1.51;69.59;99812.75;2905995;81;21631;-74
2021/12/25 07:54:00;;;;;;;23.02;9.85;;;;;;;-1.49;69.71;99818.76;2864010;81;21060;-74
2021/12/25 07:58:03;;;;;;;13.78;6.83;;;;;;;-1.43;69.89;99827.63;2859961;83;21065;-72
2021/12/25 08:02:05;;;;;;;73.92;30.72;;;;;;;-1.41;69.72;99828.89;2858423;83;21061;-70
2021/12/25 08:06:07;;;;;;;90.05;40.95;;;;;;;-1.35;69.66;99832.55;2857477;83;21049;-73
2021/12/25 08:10:20;;;;;;;29.70;10.95;;;;;;;-1.32;69.99;99841.13;2857660;83;21069;-70
2021/12/25 08:14:26;;;;;;;28.12;10.63;;;;;;;-1.25;70.21;99840.87;2857499;82;21049;-75
2021/12/25 08:18:30;;;;;;;19.90;8.25;;;;;;;-1.17;70.24;99844.87;2857523;83;21097;-73
2021/12/25 08:22:39;;;;;;;308.30;151.07;;;;;;;-1.13;70.14;99837.77;2873413;81;21034;-69
2021/12/25 08:26:46;;;;;;;82.10;32.25;;;;;;;-1.05;69.87;99839.60;2876318;80;21642;-72
2021/12/25 08:30:51;;;;;;;81.15;30.35;;;;;;;-1.14;69.86;99819.11;2850770;82;21066;-75
2021/12/25 08:34:57;;;;;;;18.05;8.58;;;;;;;-0.91;69.30;99843.42;2891335;82;21105;-73
2021/12/25 08:38:59;;;;;;;4.83;2.37;;;;;;;-0.82;69.07;99844.33;2890753;82;21034;-68
2021/12/25 08:43:02;;;;;;;4.37;2.87;;;;;;;-0.77;68.37;99854.14;2904748;82;21593;-74
2021/12/25 08:47:08;;;;;;;3.37;2.58;;;;;;;-0.77;68.37;99854.14;2931245;80;20975;-72
2021/12/25 08:51:10;;;;;;;5.90;2.75;;;;;;;-0.74;68.33;99863.16;2950689;80;21046;-70
2021/12/25 08:55:12;;;;;;;3.90;2.55;;;;;;;-0.77;67.05;99859.38;2945931;80;21011;-69
2021/12/25 08:59:13;;;;;;;1.55;1.35;;;;;;;-0.80;67.19;99864.70;2954998;80;21061;-74
2021/12/25 09:03:15;;;;;;;3.37;0.90;;;;;;;-0.78;66.85;99867.26;2955046;80;21057;-74
2021/12/25 09:07:17;;;;;;;4.55;2.37;;;;;;;-0.77;66.04;99862.42;2954734;80;21006;-75
2021/12/25 09:11:20;;;;;;;7.55;5.28;;;;;;;-0.81;66.49;99864.30;2955375;80;21038;-73
2021/12/25 09:15:23;;;;;;;4.70;2.20;;;;;;;-0.83;65.65;99859.61;2936420;80;21061;-74
2021/12/25 09:19:24;;;;;;;12.85;8.38;;;;;;;-0.82;66.47;99867.00;2904721;82;20959;-74
2021/12/25 09:23:26;;;;;;;12.93;6.78;;;;;;;-0.77;67.03;99875.05;2904585;80;21546;-71
2021/12/25 09:27:27;;;;;;;8.70;4.40;;;;;;;-0.77;66.98;99869.82;2908523;79;21070;-72
2021/12/25 09:31:29;;;;;;;21.25;4.92;;;;;;;-0.74;66.12;99871.44;2900805;82;21022;-70
2021/12/25 09:35:31;;;;;;;29.00;12.90;;;;;;;-0.70;66.58;99869.55;2902074;82;21021;-69
2021/12/25 09:39:34;;;;;;;10.35;5.17;;;;;;;-0.72;66.60;99878.30;2903223;82;21738;-68
2021/12/25 09:43:36;;;;;;;16.73;7.05;;;;;;;-0.69;67.15;99870.78;2902095;82;21032;-71
2021/12/25 09:47:39;;;;;;;10.35;6.50;;;;;;;-0.69;66.48;99872.56;2925202;80;21606;-69
2021/12/25 09:51:42;;;;;;;12.28;6.03;;;;;;;-0.68;67.32;99875.12;2946691;80;21337;-75
2021/12/25 09:55:43;;;;;;;15.15;8.63;;;;;;;-0.72;65.77;99867.86;2916755;80;21077;-71
2021/12/25 09:59:46;;;;;;;16.82;5.15;;;;;;;-0.70;66.25;99877.39;2904484;80;21508;-74
2021/12/25 10:03:48;;;;;;;29.52;8.35;;;;;;;-0.75;66.15;99874.52;2934814;80;21522;-74
2021/12/25 10:08:03;;;;;;;14.58;8.58;;;;;;;-0.65;66.55;99876.29;2928692;79;21066;-77
2021/12/25 10:12:10;;;;;;;9.73;6.47;;;;;;;-0.50;67.52;99868.70;2899384;80;21030;-75
2021/12/25 10:16:28;;;;;;;7.22;4.20;;;;;;;-0.40;64.38;99870.45;2899799;82;21618;-76
2021/12/25 10:24:53;;;;;;;6.97;3.90;;;;;;;-0.49;63.33;99866.03;3088522;76;23305;-75
2021/12/25 10:28:41;;;;;;;9.33;3.72;;;;;;;-0.61;64.16;99863.92;3009677;77;21067;-75
2021/12/25 10:32:43;;;;;;;11.10;4.60;;;;;;;-0.50;64.10;99870.86;3016830;77;21063;-75
2021/12/25 10:36:45;;;;;;;9.38;4.83;;;;;;;-0.45;64.37;99874.59;3018103;78;20992;-73
2021/12/25 10:40:47;;;;;;;9.10;4.05;;;;;;;-0.41;64.06;99873.98;3018092;78;21031;-72
2021/12/25 10:44:52;;;;;;;7.65;3.60;;;;;;;-0.37;64.33;99876.89;3019416;78;21051;-74
2021/12/25 10:48:53;;;;;;;6.30;2.17;;;;;;;-0.31;64.43;99885.28;3019186;78;21027;-73
2021/12/25 10:52:55;;;;;;;3.95;2.12;;;;;;;-0.19;62.80;99880.02;3009747;77;21539;-70
2021/12/25 10:56:56;;;;;;;5.35;2.95;;;;;;;-0.13;62.81;99880.17;2990736;77;21042;-70
2021/12/25 11:00:58;;;;;;;8.00;2.25;;;;;;;0.05;62.17;99874.61;2998792;77;21057;-70
2021/12/25 11:05:16;;;;;;;8.53;3.80;;;;;;;0.19;62.52;99876.59;2968094;78;21057;-72
2021/12/25 11:09:18;;;;;;;6.97;3.27;;;;;;;0.37;62.27;99891.90;2965279;80;21022;-72
2021/12/25 11:13:31;;;;;;;4.17;1.85;;;;;;;0.37;62.27;99891.90;2980879;78;21046;-69
2021/12/25 11:17:34;;;;;;;4.20;2.15;;;;;;;0.40;60.55;99883.06;2963522;79;21034;-76
2021/12/25 11:21:48;;;;;;;2.37;1.92;;;;;;;0.38;59.76;99851.73;2995120;78;21019;-78
2021/12/25 11:25:49;;;;;;;9.40;3.77;;;;;;;0.49;60.54;99869.58;3016451;78;21034;-71
2021/12/25 11:29:51;;;;;;;4.03;1.52;;;;;;;0.41;58.94;99873.85;3016449;78;21613;-77
2021/12/25 11:33:53;;;;;;;3.40;2.40;;;;;;;0.41;58.94;99873.85;3015360;78;20975;-73
2021/12/25 11:37:56;;;;;;;2.12;1.52;;;;;;;0.34;59.48;99855.89;3015604;78;21022;-74
2021/12/25 11:42:05;;;;;;;11.22;7.35;;;;;;;0.49;59.32;99870.02;3016367;78;20991;-76
2021/12/25 11:46:08;;;;;;;8.65;4.15;;;;;;;0.65;59.87;99865.77;3017980;78;21042;-74
2021/12/25 11:50:18;;;;;;;20.25;6.95;;;;;;;0.70;59.25;99869.48;3018616;78;21194;-73
2021/12/25 11:58:51;;;;;;;15.95;8.95;;;;;;;0.79;59.59;99874.74;3016790;78;20987;-79
2021/12/25 12:02:52;;;;;;;58.13;22.67;;;;;;;0.77;59.84;99854.30;3013731;77;21053;-79
2021/12/25 12:06:58;;;;;;;11.57;6.83;;;;;;;0.92;59.85;99867.97;3006460;77;21343;-71
2021/12/25 12:11:00;;;;;;;15.03;4.83;;;;;;;1.00;60.37;99864.98;3003822;77;21069;-73
2021/12/25 12:15:17;;;;;;;2.98;2.33;;;;;;;0.92;59.10;99875.83;3019298;77;20985;-71
2021/12/25 12:19:38;;;;;;;70.15;29.30;;;;;;;0.88;59.66;99879.52;2989363;78;21014;-71
2021/12/25 12:27:56;;;;;;;18.10;7.27;;;;;;;0.81;59.54;99891.22;2999878;77;20967;-72
2021/12/25 12:31:57;;;;;;;8.33;5.80;;;;;;;0.84;60.51;99891.08;3010111;78;20996;-81
2021/12/25 12:36:00;;;;;;;10.05;3.72;;;;;;;0.75;60.00;99878.41;3002631;77;21062;-79
2021/12/25 12:40:07;;;;;;;29.32;10.68;;;;;;;0.69;60.44;99880.40;3010929;77;21364;-77
2021/12/25 12:44:16;;;;;;;26.75;10.30;;;;;;;0.71;60.99;99893.43;3002770;77;21041;-79
2021/12/25 12:48:23;;;;;;;34.53;16.25;;;;;;;0.66;60.62;99899.32;2973840;78;21488;-67
2021/12/25 12:52:38;;;;;;;38.73;21.87;;;;;;;0.60;59.68;99903.55;2963074;80;20990;-76
2021/12/25 12:57:01;;;;;;;21.40;10.15;;;;;;;0.55;60.63;99896.76;2973813;77;21017;-75
2021/12/25 13:01:11;;;;;;;15.25;9.95;;;;;;;0.57;60.55;99894.05;2990195;78;21354;-76
2021/12/25 13:05:14;;;;;;;17.10;10.23;;;;;;;0.50;60.30;99891.34;2989060;77;20991;-70
2021/12/25 13:09:17;;;;;;;14.63;5.37;;;;;;;0.56;60.26;99903.69;3017032;78;20920;-71
2021/12/25 13:13:28;;;;;;;20.60;13.88;;;;;;;0.57;59.86;99907.14;3013664;78;20990;-69
2021/12/25 13:17:30;;;;;;;15.90;7.15;;;;;;;0.65;60.80;99909.41;2976896;78;21026;-77
2021/12/25 13:21:35;;;;;;;16.20;8.63;;;;;;;0.61;60.50;99907.41;2963173;79;21117;-77
2021/12/25 13:25:54;;;;;;;13.08;7.92;;;;;;;0.60;59.78;99907.02;2972245;79;21691;-71
2021/12/25 13:30:07;;;;;;;13.93;6.53;;;;;;;0.59;60.26;99913.62;2972579;79;21041;-82
2021/12/25 13:34:18;;;;;;;5.05;3.50;;;;;;;0.64;61.43;99913.81;2971585;79;21034;-76
2021/12/25 13:38:20;;;;;;;8.00;5.15;;;;;;;0.58;59.92;99919.78;2973861;80;21057;-71
2021/12/25 13:42:22;;;;;;;9.35;4.95;;;;;;;0.53;60.18;99919.55;2973736;79;21450;-70
2021/12/25 13:46:23;;;;;;;8.00;4.50;;;;;;;0.54;60.93;99921.69;2981803;78;21539;-72
2021/12/25 13:50:25;;;;;;;7.58;4.22;;;;;;;0.55;61.33;99934.72;2975468;80;20994;-73
2021/12/25 13:54:27;;;;;;;41.05;16.87;;;;;;;0.54;61.08;99937.39;2975757;79;21037;-76
2021/12/25 13:58:29;;;;;;;8.80;5.30;;;;;;;0.56;62.13;99929.00;2975073;80;20947;-69
2021/12/25 14:02:30;;;;;;;13.32;7.55;;;;;;;0.55;62.29;99941.70;2974485;79;21038;-77
2021/12/25 14:06:32;;;;;;;8.73;6.20;;;;;;;0.49;62.38;99945.92;2972533;79;21057;-73
2021/12/25 14:10:37;;;;;;;11.55;5.17;;;;;;;0.35;63.50;99947.86;2998993;78;21006;-73
2021/12/25 14:14:39;;;;;;;7.22;4.17;;;;;;;0.28;62.68;99948.11;3018805;77;21077;-72
2021/12/25 14:18:41;;;;;;;6.67;4.40;;;;;;;0.31;63.02;99948.92;3021357;77;21018;-74
2021/12/25 14:22:46;;;;;;;7.65;3.80;;;;;;;0.22;62.02;99961.95;3016213;77;21033;-74
2021/12/25 14:26:48;;;;;;;7.05;3.22;;;;;;;0.16;62.13;99949.98;3002114;77;21006;-71
2021/12/25 14:31:07;;;;;;;18.05;8.40;;;;;;;0.06;61.83;99966.98;3004147;77;21007;-73
2021/12/25 14:35:17;;;;;;;19.45;8.80;;;;;;;-0.22;63.63;99973.40;2977526;78;21022;-78
2021/12/25 14:39:20;;;;;;;7.33;4.00;;;;;;;-0.50;65.48;99967.55;2980215;77;21014;-70
2021/12/25 14:43:32;;;;;;;4.90;3.17;;;;;;;-1.11;68.33;99973.00;3003286;78;21065;-69
2021/12/25 14:47:51;;;;;;;3.40;2.55;;;;;;;-1.11;68.33;99973.00;2986820;78;21070;-77
2021/12/25 14:51:58;;;;;;;7.65;3.75;;;;;;;-1.21;68.81;99979.47;2961787;80;20990;-75
2021/12/25 14:56:04;;;;;;;12.07;6.28;;;;;;;-1.32;69.49;99984.66;2971622;77;21582;-77
2021/12/25 15:00:07;;;;;;;14.85;5.65;;;;;;;-1.62;69.89;99986.16;2962203;79;21038;-76
2021/12/25 15:04:17;;;;;;;17.15;6.80;;;;;;;-1.84;70.36;99990.01;2979444;78;21085;-72
2021/12/25 15:08:32;;;;;;;13.75;8.08;;;;;;;-1.99;70.66;99980.11;3014795;78;21065;-68
2021/12/25 15:12:34;;;;;;;22.10;10.35;;;;;;;-2.21;71.26;99996.48;3053504;77;20962;-68
2021/12/25 15:16:48;;;;;;;10.70;7.55;;;;;;;-2.30;71.58;99991.96;3077095;77;21522;-73
2021/12/25 15:21:05;;;;;;;9.90;4.67;;;;;;;-2.32;71.50;99999.45;3031852;77;21007;-70
2021/12/25 15:25:12;;;;;;;7.58;6.75;;;;;;;-2.32;71.39;99992.94;3016340;77;21081;-73
2021/12/25 15:29:15;;;;;;;16.15;8.60;;;;;;;-2.39;71.40;99993.59;2986446;77;21027;-68
2021/12/25 15:33:16;;;;;;;9.18;6.67;;;;;;;-2.38;71.40;99994.42;2987524;77;21692;-68
2021/12/25 15:37:23;;;;;;;59.93;24.12;;;;;;;-2.39;71.49;99994.02;2995165;77;21038;-70
2021/12/25 15:41:24;;;;;;;91.02;43.85;;;;;;;-2.42;71.48;100008.02;2986434;77;20999;-72
2021/12/25 15:45:29;;;;;;;26.65;14.40;;;;;;;-2.45;71.49;100008.95;2992057;78;21077;-72
2021/12/25 15:49:31;;;;;;;18.85;10.78;;;;;;;-2.48;71.25;100005.16;2963917;80;21046;-72
2021/12/25 15:53:33;;;;;;;39.15;19.75;;;;;;;-2.40;71.39;100001.44;2982025;77;20975;-71
2021/12/25 15:57:36;;;;;;;20.50;10.82;;;;;;;-2.39;71.31;100008.34;2994317;77;21417;-72
2021/12/25 16:01:38;;;;;;;43.68;17.12;;;;;;;-2.36;71.20;100011.72;3003229;77;20995;-72
2021/12/25 16:05:40;;;;;;;45.43;17.55;;;;;;;-2.31;71.24;100015.02;3012626;77;21045;-72
2021/12/25 16:09:43;;;;;;;19.73;10.78;;;;;;;-2.28;71.48;100015.38;3000466;77;21077;-72
2021/12/25 16:13:45;;;;;;;19.62;12.95;;;;;;;-2.28;71.55;100018.42;2996184;77;21045;-71
2021/12/25 16:17:47;;;;;;;36.50;18.85;;;;;;;-2.26;71.56;100021.39;2993847;77;20996;-73
2021/12/25 16:21:49;;;;;;;38.70;18.05;;;;;;;-2.21;71.72;100015.56;3013962;78;21019;-75
2021/12/25 16:25:51;;;;;;;85.20;33.05;;;;;;;-2.14;71.65;100020.59;3014418;77;21308;-76
2021/12/25 16:29:53;;;;;;;79.90;33.92;;;;;;;-2.13;71.11;100017.08;3015246;78;21053;-75
2021/12/25 16:33:55;;;;;;;91.17;37.88;;;;;;;-2.10;70.65;100029.53;3014762;78;21057;-72
2021/12/25 16:37:56;;;;;;;42.65;23.62;;;;;;;-2.07;70.43;100026.82;3014787;78;21045;-73
2021/12/25 16:41:59;;;;;;;33.50;17.40;;;;;;;-2.05;70.25;100034.17;3014083;78;21026;-75
2021/12/25 16:46:08;;;;;;;67.67;34.25;;;;;;;-2.02;70.04;100037.10;2986913;78;20983;-72
2021/12/25 16:50:10;;;;;;;115.90;57.85;;;;;;;-2.03;69.88;100032.80;2976253;78;21030;-74
2021/12/25 16:54:12;;;;;;;65.32;30.43;;;;;;;-2.08;69.78;100033.41;2997218;77;21022;-74
2021/12/25 16:58:14;;;;;;;50.15;28.30;;;;;;;-2.08;70.01;100039.92;3000564;77;21010;-73
2021/12/25 17:02:21;;;;;;;47.85;24.47;;;;;;;-2.08;69.70;100039.45;2961732;80;20999;-68
2021/12/25 17:06:19;;;;;;;54.25;23.40;;;;;;;-2.11;69.42;100038.73;2993968;78;21010;-68
2021/12/25 17:10:22;;;;;;;32.55;20.72;;;;;;;-2.17;69.54;100030.19;3013925;78;21042;-67
2021/12/25 17:14:24;;;;;;;37.23;22.05;;;;;;;-2.18;69.37;100040.22;2968219;78;20978;-69
2021/12/25 17:18:26;;;;;;;28.10;16.95;;;;;;;-2.17;69.53;100034.09;3016387;78;21070;-72
2021/12/25 17:22:29;;;;;;;67.45;32.03;;;;;;;-2.17;69.66;100038.00;3015823;78;20995;-72
2021/12/25 17:26:31;;;;;;;54.98;31.82;;;;;;;-2.16;70.44;100044.09;3028796;78;21054;-72
2021/12/25 17:30:38;;;;;;;39.15;19.70;;;;;;;-2.17;70.92;100044.52;3029266;77;21018;-73
2021/12/25 17:34:40;;;;;;;51.40;32.13;;;;;;;-2.13;70.98;100047.05;3028898;77;20990;-72
2021/12/25 17:38:44;;;;;;;50.50;24.67;;;;;;;-2.16;71.45;100051.91;3029038;77;21038;-71
2021/12/25 17:42:48;;;;;;;147.15;74.42;;;;;;;-2.19;72.06;100049.41;3027505;78;21030;-69
2021/12/25 17:46:51;;;;;;;197.95;86.53;;;;;;;-2.23;72.10;100055.62;3028306;78;21057;-66
2021/12/25 17:50:55;;;;;;;187.53;79.22;;;;;;;-2.27;71.04;100058.77;3028788;77;21449;-71
2021/12/25 17:54:58;;;;;;;112.30;51.90;;;;;;;-2.37;70.88;100059.95;3028471;78;21042;-70
2021/12/25 17:59:00;;;;;;;64.72;34.92;;;;;;;-2.38;71.98;100067.37;2985197;77;21429;-73
2021/12/25 18:03:03;;;;;;;45.45;21.82;;;;;;;-2.40;72.17;100086.11;2974436;80;21027;-72
2021/12/25 18:07:05;;;;;;;98.65;47.67;;;;;;;-2.40;71.94;100082.20;2974619;79;20983;-73
2021/12/25 18:11:09;;;;;;;23.22;15.55;;;;;;;-2.44;70.93;100085.38;2974292;79;21026;-68
2021/12/25 18:15:14;;;;;;;27.15;15.83;;;;;;;-2.45;72.08;100085.81;2959919;80;20966;-72
2021/12/25 18:19:16;;;;;;;32.80;19.23;;;;;;;-2.46;72.30;100091.92;2976509;77;21006;-69
2021/12/25 18:23:18;;;;;;;56.80;29.48;;;;;;;-2.48;72.27;100095.02;2974474;80;21412;-67
2021/12/25 18:27:23;;;;;;;55.03;29.75;;;;;;;-2.52;72.70;100090.81;2992842;78;21065;-67
2021/12/25 18:31:24;;;;;;;47.05;28.77;;;;;;;-2.54;73.29;100098.27;2962728;79;21318;-66
2021/12/25 18:35:26;;;;;;;57.62;27.87;;;;;;;-2.53;73.14;100095.63;2962711;80;21056;-73
2021/12/25 18:39:28;;;;;;;38.20;27.32;;;;;;;-2.50;73.32;100099.44;2961247;80;21025;-74
2021/12/25 18:43:29;;;;;;;37.85;23.30;;;;;;;-2.49;73.52;100099.83;2959926;80;21037;-72
2021/12/25 18:47:32;;;;;;;34.90;17.48;;;;;;;-2.48;73.84;100101.54;2991404;77;21582;-74
2021/12/25 18:51:33;;;;;;;43.45;20.27;;;;;;;-2.49;73.78;100106.34;3035357;77;20986;-73
2021/12/25 18:55:36;;;;;;;37.73;18.92;;;;;;;-2.53;73.61;100109.08;3076571;77;21633;-74
2021/12/25 18:59:40;;;;;;;31.37;19.42;;;;;;;-2.58;73.40;100110.52;2974600;77;21041;-71
2021/12/25 19:03:42;;;;;;;41.40;20.60;;;;;;;-2.63;73.47;100108.08;2965029;79;21997;-73
2021/12/25 19:07:46;;;;;;;51.18;24.35;;;;;;;-2.63;72.73;100107.20;2960365;80;21025;-72
2021/12/25 19:11:48;;;;;;;40.30;21.40;;;;;;;-2.66;72.15;100107.30;2960986;79;21013;-72
2021/12/25 19:15:52;;;;;;;41.60;24.80;;;;;;;-2.70;71.89;100094.81;3003531;78;20998;-70
2021/12/25 19:19:54;;;;;;;54.35;29.50;;;;;;;-2.76;70.98;100095.01;3024897;78;21559;-69
2021/12/25 19:23:56;;;;;;;70.28;33.23;;;;;;;-2.81;71.12;100101.64;3022071;78;21030;-73
2021/12/25 19:27:58;;;;;;;95.15;49.10;;;;;;;-2.85;71.16;100097.43;3012291;77;21038;-70
2021/12/25 19:32:00;;;;;;;228.77;113.20;;;;;;;-2.87;71.23;100101.83;2992248;77;21340;-70
2021/12/25 19:36:03;;;;;;;717.17;380.80;;;;;;;-2.90;71.12;100103.23;3014341;78;21014;-72
2021/12/25 19:40:10;;;;;;;353.98;167.18;;;;;;;-2.94;70.88;100102.92;3014059;77;21022;-73
2021/12/25 19:44:12;;;;;;;181.87;85.15;;;;;;;-2.97;70.60;100102.55;3014716;78;21022;-73
2021/12/25 19:48:15;;;;;;;177.53;81.90;;;;;;;-2.97;70.68;100102.98;3014429;78;20963;-67
2021/12/25 19:52:16;;;;;;;148.40;70.70;;;;;;;-2.99;70.37;100106.08;3015041;78;20998;-67
2021/12/25 19:56:18;;;;;;;139.43;70.65;;;;;;;-3.03;70.64;100103.57;3003993;77;21579;-69
2021/12/25 20:00:30;;;;;;;140.28;68.78;;;;;;;-3.02;70.63;100113.09;2992342;77;21033;-72
2021/12/25 20:04:30;;;;;;;118.60;64.37;;;;;;;-3.02;70.46;100117.45;2963859;78;21034;-71
2021/12/25 20:08:33;;;;;;;123.55;57.67;;;;;;;-3.04;70.38;100121.85;2963603;79;21081;-71
2021/12/25 20:12:34;;;;;;;109.60;55.65;;;;;;;-3.06;70.54;100111.47;2984626;77;20967;-69
2021/12/25 20:16:36;;;;;;;89.72;55.55;;;;;;;-3.06;70.37;100117.11;2979557;77;21488;-70
2021/12/25 20:20:37;;;;;;;131.65;69.15;;;;;;;-3.06;71.16;100118.41;3004604;78;21460;-68
2021/12/25 20:24:39;;;;;;;143.07;73.60;;;;;;;-3.08;71.56;100120.20;3004218;78;21394;-74
2021/12/25 20:28:41;;;;;;;120.77;64.42;;;;;;;-3.07;71.77;100113.67;3003174;78;20970;-72
2021/12/25 20:32:43;;;;;;;98.42;55.33;;;;;;;-3.15;70.56;100120.82;3010656;78;21046;-74